Time;durP1;ratioP1;P1;durP2;ratioP2;P2;SDS_P1;SDS_P2;PMS_P1;PMS_P2;Temp;Humidity;BMP_temperature;BMP_pressure;BME280_temperature;BME280_humidity;BME280_pressure;Samples;Min_cycle;Max_cycle;Signal;HPM_P1;HPM_P2
2021/06/16 00:02:00;;;;;;;2.30;1.15;;;;;;;;;;5053287;28;20064;-67
2021/06/16 00:04:25;;;;;;;2.42;0.95;;;;;;;;;;5050920;28;20030;-66
2021/06/16 00:06:51;;;;;;;1.38;0.95;;;;;;;;;;5049645;28;20033;-66
2021/06/16 00:09:17;;;;;;;1.83;0.80;;;;;;;;;;5050290;28;20033;-66
2021/06/16 00:11:42;;;;;;;1.73;1.02;;;;;;;;;;5051064;28;20393;-66
2021/06/16 00:14:08;;;;;;;1.23;0.90;;;;;;;;;;5032297;28;20057;-66
2021/06/16 00:16:34;;;;;;;1.52;1.10;;;;;;;;;;5049333;28;20033;-65
2021/06/16 00:18:59;;;;;;;2.17;0.93;;;;;;;;;;5051089;28;20482;-65
2021/06/16 00:21:25;;;;;;;2.83;1.30;;;;;;;;;;5066410;28;20147;-66
2021/06/16 00:23:51;;;;;;;1.70;1.13;;;;;;;;;;5041761;28;20418;-66
2021/06/16 00:26:16;;;;;;;1.30;1.00;;;;;;;;;;5031222;28;20061;-67
2021/06/16 00:28:42;;;;;;;1.98;1.13;;;;;;;;;;5041510;28;20119;-66
2021/06/16 00:31:07;;;;;;;2.33;1.10;;;;;;;;;;5050779;28;20041;-66
2021/06/16 00:33:33;;;;;;;1.92;1.00;;;;;;;;;;5049550;28;20056;-66
2021/06/16 00:35:59;;;;;;;2.83;1.10;;;;;;;;;;5014619;28;20037;-66
2021/06/16 00:38:24;;;;;;;2.22;1.00;;;;;;;;;;5031042;28;20037;-66
2021/06/16 00:40:51;;;;;;;2.33;1.00;;;;;;;;;;5059092;28;20033;-66
2021/06/16 00:43:16;;;;;;;0.88;0.75;;;;;;;;;;5051060;28;20045;-66
2021/06/16 00:45:42;;;;;;;1.23;0.77;;;;;;;;;;5064569;28;20052;-66
2021/06/16 00:48:08;;;;;;;1.77;1.00;;;;;;;;;;5017074;28;20492;-66
2021/06/16 00:50:38;;;;;;;2.45;0.95;;;;;;;;;;5049733;28;20045;-66
2021/06/16 00:53:06;;;;;;;1.63;1.00;;;;;;;;;;5050113;28;20044;-66
2021/06/16 00:55:32;;;;;;;1.23;0.80;;;;;;;;;;5051411;28;20030;-66
2021/06/16 00:57:57;;;;;;;3.25;1.08;;;;;;;;;;5050082;28;20397;-66
2021/06/16 01:00:32;;;;;;;1.05;0.75;;;;;;;;;;5031110;28;20037;-66
2021/06/16 01:03:21;;;;;;;1.92;1.08;;;;;;;;;;5041771;28;20180;-66
2021/06/16 01:05:49;;;;;;;1.58;0.95;;;;;;;;;;5017811;28;20041;-66
2021/06/16 01:08:22;;;;;;;1.52;0.85;;;;;;;;;;5050294;28;20048;-66
2021/06/16 01:10:47;;;;;;;1.42;0.88;;;;;;;;;;5050163;28;20072;-66
2021/06/16 01:13:16;;;;;;;4.28;1.20;;;;;;;;;;5022889;28;20599;-66
2021/06/16 01:16:02;;;;;;;1.92;1.00;;;;;;;;;;5035786;28;20029;-66
2021/06/16 01:18:27;;;;;;;1.05;0.95;;;;;;;;;;5037886;28;20457;-66
2021/06/16 01:20:54;;;;;;;2.67;1.30;;;;;;;;;;5052915;28;20026;-66
2021/06/16 01:23:23;;;;;;;1.25;0.85;;;;;;;;;;5035151;28;20126;-66
2021/06/16 01:26:01;;;;;;;1.52;1.20;;;;;;;;;;5052253;28;20041;-66
2021/06/16 01:28:37;;;;;;;1.45;0.93;;;;;;;;;;5055016;28;20548;-66
2021/06/16 01:31:03;;;;;;;2.60;1.17;;;;;;;;;;5035378;28;20045;-66
2021/06/16 01:33:29;;;;;;;3.17;1.13;;;;;;;;;;5052204;28;20401;-66
2021/06/16 01:35:55;;;;;;;2.72;1.30;;;;;;;;;;5036532;28;20045;-66
2021/06/16 01:38:21;;;;;;;3.25;1.50;;;;;;;;;;5053160;28;20029;-66
2021/06/16 01:40:47;;;;;;;2.00;1.20;;;;;;;;;;5039183;28;20096;-66
2021/06/16 01:43:13;;;;;;;1.52;1.15;;;;;;;;;;5017699;28;20039;-66
2021/06/16 01:45:39;;;;;;;1.20;1.00;;;;;;;;;;5018923;28;20037;-67
2021/06/16 01:48:06;;;;;;;2.88;1.30;;;;;;;;;;5053002;28;20036;-66
2021/06/16 01:50:32;;;;;;;2.70;1.20;;;;;;;;;;5034583;28;20026;-66
2021/06/16 01:52:58;;;;;;;1.98;1.10;;;;;;;;;;5019210;28;20945;-66
2021/06/16 01:55:23;;;;;;;1.77;1.30;;;;;;;;;;5052578;28;20067;-66
2021/06/16 01:57:53;;;;;;;2.13;1.20;;;;;;;;;;5021793;28;20121;-67
2021/06/16 02:00:19;;;;;;;2.92;1.17;;;;;;;;;;5006659;28;20037;-66
2021/06/16 02:02:45;;;;;;;1.83;1.00;;;;;;;;;;5021770;28;20109;-66
2021/06/16 02:05:11;;;;;;;1.45;1.00;;;;;;;;;;5018538;28;20053;-66
2021/06/16 02:07:42;;;;;;;2.35;1.20;;;;;;;;;;5034480;28;20022;-66
2021/06/16 02:10:09;;;;;;;1.67;1.33;;;;;;;;;;5033626;28;20069;-66
2021/06/16 02:12:37;;;;;;;1.20;1.10;;;;;;;;;;5033919;28;20032;-66
2021/06/16 02:15:06;;;;;;;1.80;1.00;;;;;;;;;;5044173;28;20030;-66
2021/06/16 02:17:33;;;;;;;1.45;1.10;;;;;;;;;;5035070;28;20033;-66
2021/06/16 02:19:58;;;;;;;2.45;1.30;;;;;;;;;;5036913;28;20057;-66
2021/06/16 02:22:26;;;;;;;1.30;0.98;;;;;;;;;;5033282;28;20036;-66
2021/06/16 02:24:52;;;;;;;1.33;1.10;;;;;;;;;;5002212;28;20347;-66
2021/06/16 02:27:17;;;;;;;1.73;1.20;;;;;;;;;;5054315;28;20033;-66
2021/06/16 02:29:43;;;;;;;1.85;1.13;;;;;;;;;;5037123;28;20076;-65
2021/06/16 02:32:09;;;;;;;2.58;1.02;;;;;;;;;;5051078;28;20041;-66
2021/06/16 02:34:34;;;;;;;2.95;1.30;;;;;;;;;;5025843;28;20037;-66
2021/06/16 02:37:02;;;;;;;1.60;1.20;;;;;;;;;;5033377;28;20466;-66
2021/06/16 02:39:32;;;;;;;2.85;1.45;;;;;;;;;;5044281;28;20033;-66
2021/06/16 02:41:58;;;;;;;1.40;1.17;;;;;;;;;;5036715;28;20516;-66
2021/06/16 02:44:24;;;;;;;2.25;1.23;;;;;;;;;;5019942;28;20092;-66
2021/06/16 02:46:51;;;;;;;1.75;1.30;;;;;;;;;;5052050;28;20061;-66
2021/06/16 02:49:17;;;;;;;2.50;1.33;;;;;;;;;;5050881;28;20063;-67
2021/06/16 02:51:42;;;;;;;2.20;1.35;;;;;;;;;;5032502;28;20048;-66
2021/06/16 02:54:12;;;;;;;3.35;1.25;;;;;;;;;;5018164;28;20071;-66
2021/06/16 02:56:41;;;;;;;2.20;1.10;;;;;;;;;;5018620;28;20033;-66
2021/06/16 02:59:07;;;;;;;2.28;1.20;;;;;;;;;;5043281;28;20095;-67
2021/06/16 03:01:32;;;;;;;1.25;1.02;;;;;;;;;;5017599;28;20094;-66
2021/06/16 03:03:58;;;;;;;1.73;1.10;;;;;;;;;;5052246;28;20032;-67
2021/06/16 03:06:23;;;;;;;1.45;1.13;;;;;;;;;;5035928;28;20516;-66
2021/06/16 03:08:50;;;;;;;1.45;1.10;;;;;;;;;;5032211;28;20033;-66
2021/06/16 03:11:16;;;;;;;2.58;1.20;;;;;;;;;;5032501;28;20041;-66
2021/06/16 03:13:44;;;;;;;2.25;1.20;;;;;;;;;;5027164;28;20080;-66
2021/06/16 03:16:09;;;;;;;1.83;1.10;;;;;;;;;;5016102;28;20036;-66
2021/06/16 03:18:35;;;;;;;1.20;1.00;;;;;;;;;;5015592;28;20529;-66
2021/06/16 03:21:00;;;;;;;1.63;1.10;;;;;;;;;;5052179;28;20026;-66
2021/06/16 03:23:26;;;;;;;2.25;1.10;;;;;;;;;;5033717;28;20617;-67
2021/06/16 03:25:52;;;;;;;1.67;1.02;;;;;;;;;;5017545;28;20565;-66
2021/06/16 03:28:17;;;;;;;2.15;1.00;;;;;;;;;;5017341;28;20034;-66
2021/06/16 03:30:43;;;;;;;1.38;0.88;;;;;;;;;;5031485;28;20045;-66
2021/06/16 03:33:08;;;;;;;2.22;1.15;;;;;;;;;;5031677;28;20121;-66
2021/06/16 03:35:35;;;;;;;3.50;1.33;;;;;;;;;;5050124;28;20017;-66
2021/06/16 03:38:00;;;;;;;2.15;1.13;;;;;;;;;;5052404;28;20033;-66
2021/06/16 03:40:26;;;;;;;2.63;1.20;;;;;;;;;;5016175;28;20037;-66
2021/06/16 03:42:52;;;;;;;2.92;1.10;;;;;;;;;;5032681;28;20060;-66
2021/06/16 03:45:17;;;;;;;2.08;1.00;;;;;;;;;;5026064;28;20052;-66
2021/06/16 03:47:44;;;;;;;3.28;1.25;;;;;;;;;;5019671;28;20052;-66
2021/06/16 03:50:14;;;;;;;2.33;1.50;;;;;;;;;;5042488;28;20037;-66
2021/06/16 03:52:39;;;;;;;2.10;1.20;;;;;;;;;;5034135;28;20040;-66
2021/06/16 03:55:05;;;;;;;2.53;1.02;;;;;;;;;;5049103;28;20021;-66
2021/06/16 03:57:31;;;;;;;3.08;1.10;;;;;;;;;;5017434;28;20056;-66
2021/06/16 03:59:56;;;;;;;3.45;1.13;;;;;;;;;;5031890;28;20056;-66
2021/06/16 04:02:22;;;;;;;1.30;1.02;;;;;;;;;;5033180;28;20037;-66
2021/06/16 04:04:48;;;;;;;2.85;1.20;;;;;;;;;;5051039;28;20033;-66
2021/06/16 04:07:21;;;;;;;1.65;0.93;;;;;;;;;;5051631;28;20029;-66
2021/06/16 04:09:50;;;;;;;1.20;0.90;;;;;;;;;;5050369;28;20036;-65
2021/06/16 04:12:15;;;;;;;0.82;0.80;;;;;;;;;;5033537;28;20044;-65
2021/06/16 04:14:41;;;;;;;3.25;1.20;;;;;;;;;;5032060;28;20033;-65
2021/06/16 04:17:06;;;;;;;2.90;1.20;;;;;;;;;;5064342;28;20048;-64
2021/06/16 04:19:32;;;;;;;1.23;0.80;;;;;;;;;;5025976;28;20789;-65
2021/06/16 04:21:57;;;;;;;1.27;0.90;;;;;;;;;;5052299;28;20508;-65
2021/06/16 04:24:23;;;;;;;2.88;1.00;;;;;;;;;;5050736;28;20504;-65
2021/06/16 04:26:48;;;;;;;2.72;1.20;;;;;;;;;;5049695;28;20045;-65
2021/06/16 04:29:14;;;;;;;2.80;1.10;;;;;;;;;;5049672;28;20048;-65
2021/06/16 04:31:39;;;;;;;1.05;0.90;;;;;;;;;;5049792;28;20029;-65
2021/06/16 04:34:05;;;;;;;2.90;1.13;;;;;;;;;;5030732;28;20043;-65
2021/06/16 04:36:30;;;;;;;2.65;0.98;;;;;;;;;;5049737;28;20047;-65
2021/06/16 04:38:55;;;;;;;1.45;0.95;;;;;;;;;;5049576;28;20749;-65
2021/06/16 04:41:21;;;;;;;1.98;1.00;;;;;;;;;;5052273;28;20040;-65
2021/06/16 04:43:46;;;;;;;1.10;0.95;;;;;;;;;;5049963;28;20080;-64
2021/06/16 04:46:12;;;;;;;2.53;0.88;;;;;;;;;;5053973;28;20478;-65
2021/06/16 04:48:41;;;;;;;2.03;1.00;;;;;;;;;;5038703;28;20266;-65
2021/06/16 04:51:06;;;;;;;2.20;1.10;;;;;;;;;;5056168;28;20130;-64
2021/06/16 04:53:32;;;;;;;2.30;0.98;;;;;;;;;;5057318;28;20428;-64
2021/06/16 04:55:57;;;;;;;3.50;0.80;;;;;;;;;;5037502;28;20045;-65
2021/06/16 04:58:24;;;;;;;2.75;1.10;;;;;;;;;;5056165;28;20543;-65
2021/06/16 05:00:49;;;;;;;1.83;1.10;;;;;;;;;;5057601;28;20027;-64
2021/06/16 05:03:15;;;;;;;2.40;1.05;;;;;;;;;;5057767;28;20392;-65
2021/06/16 05:05:40;;;;;;;3.13;0.88;;;;;;;;;;5037367;28;20182;-64
2021/06/16 05:08:06;;;;;;;1.65;0.95;;;;;;;;;;5055394;28;20482;-64
2021/06/16 05:10:32;;;;;;;1.23;0.90;;;;;;;;;;5039153;28;20036;-64
2021/06/16 05:12:57;;;;;;;1.52;0.75;;;;;;;;;;5058128;28;20043;-64
2021/06/16 05:15:22;;;;;;;1.75;0.90;;;;;;;;;;5055939;28;20116;-64
2021/06/16 05:17:48;;;;;;;2.65;0.93;;;;;;;;;;5039562;28;20036;-65
2021/06/16 05:20:13;;;;;;;1.73;1.02;;;;;;;;;;5057655;28;20510;-64
2021/06/16 05:22:39;;;;;;;1.80;0.80;;;;;;;;;;5055430;28;20148;-64
2021/06/16 05:25:06;;;;;;;1.65;0.80;;;;;;;;;;5060095;28;20389;-64
2021/06/16 05:27:32;;;;;;;1.77;0.68;;;;;;;;;;5057607;28;20147;-64
2021/06/16 05:29:57;;;;;;;1.48;0.75;;;;;;;;;;5059317;28;20034;-64
2021/06/16 05:32:23;;;;;;;1.77;0.80;;;;;;;;;;5027106;28;20025;-65
2021/06/16 05:34:49;;;;;;;3.15;1.08;;;;;;;;;;5057354;28;20609;-64
2021/06/16 05:37:14;;;;;;;2.00;1.00;;;;;;;;;;5038125;28;20048;-64
2021/06/16 05:39:40;;;;;;;2.42;0.88;;;;;;;;;;5041460;28;20029;-65
2021/06/16 05:42:06;;;;;;;2.55;1.02;;;;;;;;;;5047702;28;20541;-64
2021/06/16 05:44:31;;;;;;;2.88;1.00;;;;;;;;;;5037463;28;20068;-64
2021/06/16 05:46:57;;;;;;;1.88;0.90;;;;;;;;;;5048298;28;20053;-64
2021/06/16 05:49:22;;;;;;;3.85;0.95;;;;;;;;;;5038278;28;20083;-64
2021/06/16 05:51:48;;;;;;;2.67;1.05;;;;;;;;;;5057213;28;20033;-64
2021/06/16 05:54:13;;;;;;;2.00;0.90;;;;;;;;;;5071097;28;20034;-64
2021/06/16 05:56:39;;;;;;;1.92;0.98;;;;;;;;;;5055975;28;20036;-64
2021/06/16 05:59:05;;;;;;;2.75;1.10;;;;;;;;;;5022016;28;20036;-64
2021/06/16 06:01:31;;;;;;;2.35;0.90;;;;;;;;;;5022725;28;20043;-64
2021/06/16 06:03:56;;;;;;;2.15;1.10;;;;;;;;;;5036390;28;20025;-64
2021/06/16 06:06:22;;;;;;;2.40;0.95;;;;;;;;;;5051989;28;20071;-64
2021/06/16 06:08:47;;;;;;;1.33;0.70;;;;;;;;;;5053008;28;20799;-64
2021/06/16 06:11:13;;;;;;;2.20;1.00;;;;;;;;;;5051288;28;20029;-64
2021/06/16 06:13:38;;;;;;;2.03;1.08;;;;;;;;;;5037498;28;20025;-64
2021/06/16 06:16:04;;;;;;;1.73;0.77;;;;;;;;;;5041773;28;20048;-64
2021/06/16 06:18:29;;;;;;;1.17;0.73;;;;;;;;;;5046099;28;20123;-64
2021/06/16 06:20:55;;;;;;;1.27;0.70;;;;;;;;;;5052258;28;20592;-65
2021/06/16 06:23:20;;;;;;;1.95;0.90;;;;;;;;;;5052929;28;20029;-64
2021/06/16 06:25:46;;;;;;;1.42;0.85;;;;;;;;;;5053749;28;20072;-64
2021/06/16 06:28:11;;;;;;;1.63;0.85;;;;;;;;;;5053425;28;20382;-64
2021/06/16 06:30:37;;;;;;;2.50;1.10;;;;;;;;;;5027038;28;20036;-64
2021/06/16 06:33:03;;;;;;;2.10;1.02;;;;;;;;;;5037830;28;20040;-64
2021/06/16 06:35:29;;;;;;;2.10;0.85;;;;;;;;;;5052503;28;20051;-63
2021/06/16 06:37:54;;;;;;;1.85;0.80;;;;;;;;;;5051798;28;20040;-65
2021/06/16 06:40:20;;;;;;;3.17;1.20;;;;;;;;;;5052111;28;20221;-66
2021/06/16 06:42:45;;;;;;;2.95;1.08;;;;;;;;;;5052720;28;20032;-65
2021/06/16 06:45:11;;;;;;;1.75;0.90;;;;;;;;;;5067630;28;20053;-66
2021/06/16 06:47:36;;;;;;;2.47;0.95;;;;;;;;;;5051469;28;20049;-64
2021/06/16 06:50:02;;;;;;;3.47;1.00;;;;;;;;;;5033798;28;20037;-65
2021/06/16 06:52:28;;;;;;;2.15;1.00;;;;;;;;;;5069816;28;20021;-64
2021/06/16 06:54:53;;;;;;;2.05;0.90;;;;;;;;;;5053515;28;20033;-65
2021/06/16 06:57:19;;;;;;;2.53;1.20;;;;;;;;;;5051823;28;20082;-65
2021/06/16 06:59:44;;;;;;;2.15;0.90;;;;;;;;;;5051605;28;20505;-65
2021/06/16 07:02:10;;;;;;;2.83;1.25;;;;;;;;;;5052347;28;20039;-65
2021/06/16 07:04:35;;;;;;;3.30;1.10;;;;;;;;;;5052354;28;20485;-64
2021/06/16 07:07:01;;;;;;;1.80;1.05;;;;;;;;;;5051961;28;20049;-64
2021/06/16 07:09:26;;;;;;;1.83;1.13;;;;;;;;;;5052576;28;20246;-65
2021/06/16 07:11:52;;;;;;;2.47;1.10;;;;;;;;;;5050487;28;20095;-64
2021/06/16 07:14:18;;;;;;;2.33;1.13;;;;;;;;;;5036484;28;20536;-64
2021/06/16 07:16:43;;;;;;;1.92;1.02;;;;;;;;;;5033714;28;20067;-64
2021/06/16 07:19:09;;;;;;;2.38;1.20;;;;;;;;;;5050474;28;20036;-65
2021/06/16 07:21:34;;;;;;;1.80;1.20;;;;;;;;;;5050092;28;20059;-64
2021/06/16 07:24:00;;;;;;;1.40;1.10;;;;;;;;;;5019114;28;20021;-64
2021/06/16 07:26:25;;;;;;;2.38;1.02;;;;;;;;;;5050363;28;20048;-64
2021/06/16 07:28:51;;;;;;;2.60;1.40;;;;;;;;;;5052251;28;20737;-64
2021/06/16 07:31:16;;;;;;;2.28;1.30;;;;;;;;;;5051160;28;20498;-64
2021/06/16 07:33:42;;;;;;;2.45;1.23;;;;;;;;;;5050236;28;20087;-65
2021/06/16 07:36:07;;;;;;;2.38;1.27;;;;;;;;;;5033637;28;20379;-65
2021/06/16 07:38:33;;;;;;;2.85;1.20;;;;;;;;;;5034425;28;20758;-65
2021/06/16 07:40:59;;;;;;;2.25;1.52;;;;;;;;;;5051936;28;20033;-64
2021/06/16 07:43:24;;;;;;;3.28;1.63;;;;;;;;;;5033375;28;20029;-64
2021/06/16 07:45:50;;;;;;;2.83;1.48;;;;;;;;;;5050339;28;20522;-64
2021/06/16 07:48:15;;;;;;;2.20;1.30;;;;;;;;;;5050894;28;20091;-64
2021/06/16 07:50:42;;;;;;;3.45;1.67;;;;;;;;;;5050958;28;20034;-64
2021/06/16 07:53:07;;;;;;;2.30;1.50;;;;;;;;;;5033160;28;20502;-64
2021/06/16 07:55:33;;;;;;;2.90;1.63;;;;;;;;;;5031254;28;20053;-64
2021/06/16 07:57:59;;;;;;;3.30;1.60;;;;;;;;;;5033059;28;20029;-64
2021/06/16 08:00:24;;;;;;;2.70;1.58;;;;;;;;;;5052311;28;20029;-64
2021/06/16 08:02:50;;;;;;;2.15;1.58;;;;;;;;;;5051026;28;20044;-64
2021/06/16 08:05:15;;;;;;;2.03;1.60;;;;;;;;;;5050408;28;20096;-64
2021/06/16 08:07:42;;;;;;;2.35;1.50;;;;;;;;;;5052657;28;20033;-64
2021/06/16 08:10:08;;;;;;;2.80;1.70;;;;;;;;;;5016596;28;20053;-64
2021/06/16 08:12:33;;;;;;;2.45;1.65;;;;;;;;;;5042309;28;20490;-64
2021/06/16 08:14:59;;;;;;;3.10;1.85;;;;;;;;;;5049737;28;20072;-65
2021/06/16 08:17:24;;;;;;;4.32;1.85;;;;;;;;;;5050596;28;20474;-64
2021/06/16 08:19:50;;;;;;;3.58;2.00;;;;;;;;;;5034984;28;20033;-64
2021/06/16 08:22:15;;;;;;;2.95;1.83;;;;;;;;;;5050601;28;20635;-64
2021/06/16 08:24:41;;;;;;;3.20;2.17;;;;;;;;;;5051037;28;20031;-64
2021/06/16 08:27:07;;;;;;;4.07;2.03;;;;;;;;;;5049166;28;20060;-64
2021/06/16 08:29:33;;;;;;;3.33;1.65;;;;;;;;;;5042161;28;20121;-65
2021/06/16 08:31:58;;;;;;;2.95;2.10;;;;;;;;;;5030917;28;20394;-64
2021/06/16 08:34:23;;;;;;;2.80;2.20;;;;;;;;;;5033640;28;20546;-66
2021/06/16 08:36:49;;;;;;;3.95;2.28;;;;;;;;;;5035888;28;20033;-66
2021/06/16 08:39:15;;;;;;;2.30;1.90;;;;;;;;;;5051128;28;20034;-66
2021/06/16 08:41:40;;;;;;;3.38;1.95;;;;;;;;;;5032051;28;20037;-66
2021/06/16 08:44:06;;;;;;;3.85;1.88;;;;;;;;;;5051586;28;20036;-66
2021/06/16 08:46:32;;;;;;;3.90;2.10;;;;;;;;;;5064944;28;20033;-66
2021/06/16 08:48:57;;;;;;;3.10;1.77;;;;;;;;;;5016774;28;20040;-63
2021/06/16 08:51:23;;;;;;;3.47;1.98;;;;;;;;;;5050607;28;20025;-64
2021/06/16 08:53:49;;;;;;;3.28;2.28;;;;;;;;;;5048209;28;20539;-63
2021/06/16 08:56:15;;;;;;;3.40;2.50;;;;;;;;;;5031723;28;20038;-64
2021/06/16 08:58:41;;;;;;;2.78;1.75;;;;;;;;;;5032590;28;20041;-63
2021/06/16 09:01:09;;;;;;;3.70;2.20;;;;;;;;;;5041331;28;20064;-63
2021/06/16 09:03:34;;;;;;;3.63;2.08;;;;;;;;;;5049518;28;20029;-63
2021/06/16 09:06:08;;;;;;;3.50;2.50;;;;;;;;;;5030984;28;20041;-63
2021/06/16 09:08:50;;;;;;;4.20;2.83;;;;;;;;;;5041522;28;20115;-65
2021/06/16 09:11:16;;;;;;;4.25;2.47;;;;;;;;;;5042387;28;20096;-65
2021/06/16 09:13:41;;;;;;;4.28;2.28;;;;;;;;;;5053768;28;20102;-65
2021/06/16 09:16:23;;;;;;;3.80;2.60;;;;;;;;;;5049652;28;20041;-65
2021/06/16 09:18:49;;;;;;;5.07;2.85;;;;;;;;;;5050320;28;20540;-66
2021/06/16 09:21:14;;;;;;;4.18;2.80;;;;;;;;;;5049232;28;20032;-66
2021/06/16 09:23:41;;;;;;;3.95;2.75;;;;;;;;;;5049551;28;20095;-66
2021/06/16 09:26:17;;;;;;;3.53;2.47;;;;;;;;;;5031913;28;20041;-66
2021/06/16 09:28:43;;;;;;;5.30;2.92;;;;;;;;;;5037505;28;20047;-65
2021/06/16 09:31:11;;;;;;;4.95;3.20;;;;;;;;;;5031205;28;20855;-65
2021/06/16 09:33:37;;;;;;;4.80;2.75;;;;;;;;;;5032625;28;20056;-65
2021/06/16 09:36:09;;;;;;;5.18;3.03;;;;;;;;;;5050146;28;20037;-66
2021/06/16 09:38:34;;;;;;;3.88;3.22;;;;;;;;;;5045124;28;20045;-66
2021/06/16 09:41:00;;;;;;;5.20;3.30;;;;;;;;;;5053232;28;20444;-65
2021/06/16 09:43:27;;;;;;;6.38;3.58;;;;;;;;;;5035956;28;20037;-65
2021/06/16 09:46:00;;;;;;;6.40;3.28;;;;;;;;;;5024108;28;20085;-66
2021/06/16 09:48:58;;;;;;;4.32;3.30;;;;;;;;;;5018991;28;20037;-65
2021/06/16 09:51:25;;;;;;;4.57;3.03;;;;;;;;;;5050650;28;20049;-66
2021/06/16 09:54:13;;;;;;;5.32;3.28;;;;;;;;;;5068589;28;20339;-66
2021/06/16 09:56:59;;;;;;;6.10;3.20;;;;;;;;;;5038288;28;20044;-65
2021/06/16 09:59:45;;;;;;;4.57;3.50;;;;;;;;;;5051806;28;20957;-65
2021/06/16 10:02:17;;;;;;;4.90;3.30;;;;;;;;;;5053884;28;20116;-65
2021/06/16 10:04:44;;;;;;;4.72;3.33;;;;;;;;;;5039105;28;20044;-66
2021/06/16 10:07:20;;;;;;;4.38;3.33;;;;;;;;;;5035259;28;20045;-64
2021/06/16 10:09:58;;;;;;;5.78;3.17;;;;;;;;;;5053940;28;20083;-66
2021/06/16 10:12:29;;;;;;;3.75;3.13;;;;;;;;;;5054523;28;20115;-66
2021/06/16 10:14:55;;;;;;;5.38;3.30;;;;;;;;;;5033573;28;20503;-66
2021/06/16 10:17:20;;;;;;;4.68;3.03;;;;;;;;;;5050942;28;20104;-65
2021/06/16 10:19:46;;;;;;;5.60;3.35;;;;;;;;;;5034007;28;20452;-66
2021/06/16 10:22:12;;;;;;;4.68;3.30;;;;;;;;;;5034435;28;20057;-66
2021/06/16 10:24:41;;;;;;;5.93;3.20;;;;;;;;;;5052658;28;20038;-64
2021/06/16 10:27:08;;;;;;;4.78;3.22;;;;;;;;;;5051677;28;20053;-64
2021/06/16 10:29:37;;;;;;;4.03;2.80;;;;;;;;;;5037503;28;21170;-63
2021/06/16 10:32:04;;;;;;;4.13;3.15;;;;;;;;;;5068055;28;20060;-63
2021/06/16 10:34:51;;;;;;;4.55;3.03;;;;;;;;;;5052201;28;20057;-64
2021/06/16 10:37:35;;;;;;;6.47;3.05;;;;;;;;;;5051705;28;20044;-64
2021/06/16 10:40:14;;;;;;;4.18;2.67;;;;;;;;;;5035348;28;20848;-63
2021/06/16 10:42:58;;;;;;;3.13;2.50;;;;;;;;;;5050474;28;20040;-63
2021/06/16 10:45:26;;;;;;;3.50;2.65;;;;;;;;;;5051085;28;20067;-64
2021/06/16 10:47:58;;;;;;;3.17;2.20;;;;;;;;;;5067641;28;20025;-64
2021/06/16 10:50:50;;;;;;;1.63;1.45;;;;;;;;;;5051889;28;20045;-64
2021/06/16 10:53:26;;;;;;;3.00;2.50;;;;;;;;;;5051368;28;20120;-64
2021/06/16 10:55:55;;;;;;;2.22;1.70;;;;;;;;;;5019408;28;20506;-63
2021/06/16 10:58:30;;;;;;;2.45;1.33;;;;;;;;;;5052330;28;20037;-63
2021/06/16 11:01:12;;;;;;;2.08;1.25;;;;;;;;;;5067651;28;20152;-63
2021/06/16 11:03:56;;;;;;;1.67;1.45;;;;;;;;;;5053026;28;20034;-63
2021/06/16 11:06:33;;;;;;;1.35;1.20;;;;;;;;;;5051066;28;20041;-63
2021/06/16 11:08:59;;;;;;;1.67;1.10;;;;;;;;;;5051922;28;20029;-63
2021/06/16 11:14:35;;;;;;;0.95;0.70;;;;;;;;;;5051795;28;20112;-64
2021/06/16 11:17:11;;;;;;;1.75;1.20;;;;;;;;;;5067757;28;20029;-64
2021/06/16 11:19:37;;;;;;;1.00;0.90;;;;;;;;;;5048709;28;20037;-63
2021/06/16 11:22:15;;;;;;;0.90;0.90;;;;;;;;;;5052398;28;20060;-64
2021/06/16 11:25:09;;;;;;;1.73;1.10;;;;;;;;;;5053181;28;20033;-63
2021/06/16 11:27:57;;;;;;;1.42;1.00;;;;;;;;;;5027848;28;20037;-63
2021/06/16 11:30:48;;;;;;;1.60;0.98;;;;;;;;;;5044595;28;20456;-65
2021/06/16 11:33:17;;;;;;;1.70;1.00;;;;;;;;;;5051058;28;20037;-64
2021/06/16 11:35:48;;;;;;;1.48;1.10;;;;;;;;;;5052277;28;20041;-64
2021/06/16 11:38:17;;;;;;;1.42;0.98;;;;;;;;;;5051681;28;20033;-65
2021/06/16 11:41:15;;;;;;;1.42;1.10;;;;;;;;;;5066807;28;20135;-65
2021/06/16 11:43:40;;;;;;;1.75;0.90;;;;;;;;;;5028615;28;21013;-65
2021/06/16 11:46:26;;;;;;;1.00;0.90;;;;;;;;;;5035380;28;20093;-65
2021/06/16 11:48:58;;;;;;;1.48;0.90;;;;;;;;;;5050867;28;20316;-65
2021/06/16 11:51:49;;;;;;;2.03;1.02;;;;;;;;;;5018907;28;20111;-65
2021/06/16 11:54:25;;;;;;;1.30;0.98;;;;;;;;;;5044080;28;20060;-65
2021/06/16 11:57:10;;;;;;;1.83;1.00;;;;;;;;;;5049376;28;20087;-65
2021/06/16 11:59:38;;;;;;;1.08;0.98;;;;;;;;;;5051437;28;20064;-65
2021/06/16 12:02:12;;;;;;;1.20;1.10;;;;;;;;;;5020580;28;20060;-65
2021/06/16 12:05:04;;;;;;;1.67;1.33;;;;;;;;;;5049881;28;20043;-65
2021/06/16 12:07:31;;;;;;;1.38;1.20;;;;;;;;;;5053591;28;20041;-64
2021/06/16 12:10:08;;;;;;;1.50;1.10;;;;;;;;;;5051534;28;20044;-65
2021/06/16 12:12:55;;;;;;;1.45;1.27;;;;;;;;;;5033676;28;20474;-65
2021/06/16 12:15:46;;;;;;;2.40;1.20;;;;;;;;;;5063718;28;20036;-65
2021/06/16 12:18:16;;;;;;;0.88;0.80;;;;;;;;;;5041796;28;20148;-65
2021/06/16 12:20:52;;;;;;;1.73;1.00;;;;;;;;;;5049336;28;20041;-65
2021/06/16 12:23:32;;;;;;;1.70;0.85;;;;;;;;;;5042710;28;20034;-65
2021/06/16 12:26:08;;;;;;;2.88;1.27;;;;;;;;;;5048753;28;20119;-65
2021/06/16 12:28:35;;;;;;;0.95;0.93;;;;;;;;;;5031682;28;20037;-65
2021/06/16 12:31:02;;;;;;;1.48;1.20;;;;;;;;;;5065090;28;20175;-65
2021/06/16 12:33:50;;;;;;;1.35;0.98;;;;;;;;;;5048211;28;20117;-65
2021/06/16 12:36:21;;;;;;;1.50;1.30;;;;;;;;;;5040505;28;20134;-64
2021/06/16 12:38:48;;;;;;;1.60;1.20;;;;;;;;;;5064917;28;20033;-65
2021/06/16 12:41:40;;;;;;;1.98;1.10;;;;;;;;;;5050064;28;20034;-65
2021/06/16 12:44:15;;;;;;;;;;;;;;;;;;5030479;28;20054;-65
2021/06/16 12:46:54;;;;;;;1.27;1.00;;;;;;;;;;5049812;28;19931;-65
2021/06/16 12:49:20;;;;;;;1.45;0.90;;;;;;;;;;5057495;28;20057;-65
2021/06/16 12:52:00;;;;;;;0.70;0.70;;;;;;;;;;5033053;28;20040;-65
2021/06/16 12:54:32;;;;;;;1.58;1.10;;;;;;;;;;5048464;28;20045;-66
2021/06/16 12:57:09;;;;;;;1.20;1.00;;;;;;;;;;5050973;28;20026;-65
2021/06/16 12:59:37;;;;;;;1.55;0.90;;;;;;;;;;5049991;28;20041;-65
2021/06/16 13:02:03;;;;;;;1.48;1.20;;;;;;;;;;5050711;28;20042;-65
2021/06/16 13:04:52;;;;;;;1.77;1.20;;;;;;;;;;5049528;28;20033;-65
2021/06/16 13:07:18;;;;;;;1.23;1.10;;;;;;;;;;5064705;28;20055;-65
2021/06/16 13:10:24;;;;;;;1.83;1.20;;;;;;;;;;5054909;28;20632;-65
2021/06/16 13:13:19;;;;;;;1.58;1.10;;;;;;;;;;4984747;28;20039;-65
2021/06/16 13:15:49;;;;;;;2.03;1.10;;;;;;;;;;5028845;28;20528;-65
2021/06/16 13:18:21;;;;;;;2.42;1.27;;;;;;;;;;5035808;28;20036;-65
2021/06/16 13:20:48;;;;;;;0.98;0.80;;;;;;;;;;5051154;28;20072;-65
2021/06/16 13:23:32;;;;;;;1.02;0.90;;;;;;;;;;5037983;28;20038;-65
2021/06/16 13:25:59;;;;;;;1.60;1.23;;;;;;;;;;5067535;28;20056;-65
2021/06/16 13:28:28;;;;;;;1.10;1.00;;;;;;;;;;5052555;28;20029;-65
2021/06/16 13:31:01;;;;;;;1.13;1.00;;;;;;;;;;5070600;28;20543;-66
2021/06/16 13:33:36;;;;;;;2.40;1.42;;;;;;;;;;5037803;28;20241;-66
2021/06/16 13:36:02;;;;;;;3.72;1.83;;;;;;;;;;5050787;28;20040;-67
2021/06/16 13:38:28;;;;;;;5.50;2.50;;;;;;;;;;5068198;28;20025;-69
2021/06/16 13:40:55;;;;;;;4.60;2.58;;;;;;;;;;5034015;28;20034;-65
2021/06/16 13:43:24;;;;;;;9.45;4.13;;;;;;;;;;5053297;28;20058;-66
2021/06/16 13:45:49;;;;;;;8.63;4.03;;;;;;;;;;5044477;28;20088;-66
2021/06/16 13:48:15;;;;;;;39.83;6.00;;;;;;;;;;5051628;28;20072;-65
2021/06/16 13:50:40;;;;;;;43.20;6.28;;;;;;;;;;5054428;28;20036;-65
2021/06/16 13:53:06;;;;;;;10.13;4.47;;;;;;;;;;5052615;28;20847;-65
2021/06/16 13:55:31;;;;;;;10.43;5.18;;;;;;;;;;5033484;28;20030;-65
2021/06/16 13:57:58;;;;;;;11.35;5.40;;;;;;;;;;5054050;28;20482;-65
2021/06/16 14:00:24;;;;;;;12.85;4.88;;;;;;;;;;5034665;28;20176;-64
2021/06/16 14:02:49;;;;;;;8.75;3.97;;;;;;;;;;5054579;28;20037;-63
2021/06/16 14:05:15;;;;;;;7.00;3.20;;;;;;;;;;5051995;28;20502;-65
2021/06/16 14:07:40;;;;;;;5.65;2.65;;;;;;;;;;5069731;28;20117;-65
2021/06/16 14:10:07;;;;;;;6.55;2.90;;;;;;;;;;5052646;28;20029;-60
2021/06/16 14:12:33;;;;;;;5.68;2.85;;;;;;;;;;5034338;28;20025;-65
2021/06/16 14:14:58;;;;;;;5.13;2.38;;;;;;;;;;5021218;28;20482;-65
2021/06/16 14:17:24;;;;;;;6.45;2.55;;;;;;;;;;5069333;28;20778;-63
2021/06/16 14:19:49;;;;;;;5.00;2.05;;;;;;;;;;5050939;28;20033;-67
2021/06/16 14:22:15;;;;;;;4.95;2.20;;;;;;;;;;5052475;28;20033;-64
2021/06/16 14:24:41;;;;;;;5.97;1.88;;;;;;;;;;5052338;28;20035;-67
2021/06/16 14:27:07;;;;;;;3.85;2.15;;;;;;;;;;5037352;28;20120;-62
2021/06/16 14:29:32;;;;;;;3.78;1.83;;;;;;;;;;5051639;28;20038;-62
2021/06/16 14:31:58;;;;;;;4.63;2.22;;;;;;;;;;5052065;28;20043;-63
2021/06/16 14:34:23;;;;;;;5.82;2.08;;;;;;;;;;5036967;28;20120;-60
2021/06/16 14:36:49;;;;;;;4.18;1.85;;;;;;;;;;5052378;28;20488;-64
2021/06/16 14:39:15;;;;;;;4.88;1.60;;;;;;;;;;5036609;28;20033;-64
2021/06/16 14:41:41;;;;;;;3.92;1.60;;;;;;;;;;5052408;28;20041;-63
2021/06/16 14:44:07;;;;;;;4.43;1.75;;;;;;;;;;5033394;28;20295;-63
2021/06/16 14:46:32;;;;;;;2.40;1.50;;;;;;;;;;5052296;28;20425;-63
2021/06/16 14:48:58;;;;;;;3.10;1.60;;;;;;;;;;5052953;28;20033;-64
2021/06/16 14:51:23;;;;;;;3.58;1.63;;;;;;;;;;5052482;28;20034;-63
2021/06/16 14:53:49;;;;;;;4.35;1.83;;;;;;;;;;5051559;28;20039;-64
2021/06/16 14:56:14;;;;;;;4.88;1.77;;;;;;;;;;5050526;28;20187;-63